createdAt,value
2022-12-08T00:01:25.785Z,2.69
2022-12-08T00:03:53.119Z,2.75
2022-12-08T00:06:43.181Z,2.76
2022-12-08T00:09:22.082Z,2.80
2022-12-08T00:11:53.653Z,2.86
2022-12-08T00:14:23.587Z,2.93
2022-12-08T00:16:52.090Z,2.90
2022-12-08T00:19:19.011Z,2.89
2022-12-08T00:21:46.150Z,2.78
2022-12-08T00:24:13.185Z,2.79
2022-12-08T00:26:40.055Z,2.76
2022-12-08T00:29:07.268Z,2.80
2022-12-08T00:31:34.282Z,2.88
2022-12-08T00:34:02.673Z,2.95
2022-12-08T00:36:30.762Z,2.94
2022-12-08T00:38:57.666Z,3.09
2022-12-08T00:41:44.910Z,3.07
2022-12-08T00:44:14.056Z,2.95
2022-12-08T00:46:41.523Z,2.88
2022-12-08T00:49:11.474Z,2.80
2022-12-08T00:51:38.573Z,2.74
2022-12-08T00:54:06.116Z,2.62
2022-12-08T00:56:33.860Z,2.62
2022-12-08T00:59:03.154Z,2.52
2022-12-08T01:01:30.059Z,2.44
2022-12-08T01:03:56.963Z,2.43
2022-12-08T01:06:25.568Z,2.42
2022-12-08T01:08:52.657Z,2.37
2022-12-08T01:11:20.067Z,2.51
2022-12-08T01:13:47.241Z,2.50
2022-12-08T01:16:25.789Z,2.50
2022-12-08T01:18:53.267Z,2.52
2022-12-08T01:21:21.331Z,2.51
2022-12-08T01:23:49.921Z,2.57
2022-12-08T01:26:19.105Z,2.58
2022-12-08T01:28:46.741Z,2.59
2022-12-08T01:31:15.415Z,2.59
2022-12-08T01:33:42.915Z,2.75
2022-12-08T01:36:19.379Z,2.93
2022-12-08T01:38:46.484Z,2.98
2022-12-08T01:41:17.230Z,2.86
2022-12-08T01:43:54.529Z,2.78
2022-12-08T01:46:21.560Z,2.62
2022-12-08T01:48:49.663Z,2.59
2022-12-08T01:51:16.880Z,2.50
2022-12-08T01:53:44.143Z,2.42
2022-12-08T01:56:16.123Z,2.33
2022-12-08T01:58:49.776Z,2.16
2022-12-08T02:01:17.301Z,2.09
2022-12-08T02:03:48.209Z,2.01
2022-12-08T02:06:16.597Z,1.97
2022-12-08T02:08:44.193Z,1.97
2022-12-08T02:11:12.408Z,1.93
2022-12-08T02:13:40.603Z,1.82
2022-12-08T02:16:17.880Z,1.81
2022-12-08T02:19:29.870Z,1.82
2022-12-08T02:21:57.245Z,1.84
2022-12-08T02:24:32.898Z,1.95
2022-12-08T02:27:22.973Z,2.06
2022-12-08T02:30:15.339Z,2.08
2022-12-08T02:33:23.771Z,2.47
2022-12-08T02:35:58.307Z,2.72
2022-12-08T02:38:38.939Z,2.74
2022-12-08T02:41:19.025Z,2.70
2022-12-08T02:43:48.613Z,2.65
2022-12-08T02:46:21.308Z,2.62
2022-12-08T02:48:48.620Z,2.67
2022-12-08T02:51:16.934Z,2.66
2022-12-08T02:53:45.109Z,2.67
2022-12-08T02:56:25.962Z,2.66
2022-12-08T02:59:10.522Z,2.70
2022-12-08T03:01:53.901Z,2.67
2022-12-08T03:04:34.653Z,2.69
2022-12-08T03:07:06.991Z,2.62
2022-12-08T03:09:38.700Z,2.68
2022-12-08T03:12:14.058Z,2.77
2022-12-08T03:14:45.956Z,2.78
2022-12-08T03:17:16.066Z,2.67
2022-12-08T03:19:46.008Z,2.62
2022-12-08T03:22:16.681Z,2.72
2022-12-08T03:24:45.827Z,2.71
2022-12-08T03:27:15.688Z,2.68
2022-12-08T03:29:42.854Z,2.79
2022-12-08T03:32:26.704Z,2.71
2022-12-08T03:34:54.480Z,2.70
2022-12-08T03:37:22.980Z,2.70
2022-12-08T03:39:50.153Z,2.75
2022-12-08T03:42:17.089Z,2.76
2022-12-08T03:44:44.131Z,2.71
2022-12-08T03:47:11.027Z,2.75
2022-12-08T03:49:37.847Z,2.77
2022-12-08T03:52:05.928Z,2.84
2022-12-08T03:54:34.571Z,2.87
2022-12-08T03:57:01.448Z,2.81
2022-12-08T03:59:28.243Z,2.90
2022-12-08T04:01:55.108Z,2.91
2022-12-08T04:04:21.930Z,2.92
2022-12-08T04:06:48.878Z,2.89
2022-12-08T04:09:15.747Z,2.84
2022-12-08T04:11:44.098Z,2.85
2022-12-08T04:14:10.954Z,2.84
2022-12-08T04:16:37.888Z,2.81
2022-12-08T04:19:04.842Z,2.72
2022-12-08T04:21:31.559Z,2.61
2022-12-08T04:24:01.253Z,2.53
2022-12-08T04:26:28.892Z,2.47
2022-12-08T04:28:57.143Z,2.41
2022-12-08T04:31:24.187Z,2.35
2022-12-08T04:33:51.000Z,2.27
2022-12-08T04:36:17.926Z,2.19
2022-12-08T04:38:44.785Z,2.11
2022-12-08T04:41:11.797Z,2.05
2022-12-08T04:43:38.611Z,2.04
2022-12-08T04:46:08.802Z,1.98
2022-12-08T04:48:37.930Z,1.98
2022-12-08T04:51:04.987Z,1.97
2022-12-08T04:53:32.402Z,1.99
2022-12-08T04:55:59.375Z,1.99
2022-12-08T04:58:26.215Z,1.99
2022-12-08T05:00:53.158Z,2.00
2022-12-08T05:03:28.329Z,2.00
2022-12-08T05:05:56.068Z,2.03
2022-12-08T05:08:22.932Z,2.00
2022-12-08T05:10:49.793Z,2.00
2022-12-08T05:13:16.713Z,1.98
2022-12-08T05:15:43.547Z,1.99
2022-12-08T05:18:10.483Z,2.06
2022-12-08T05:20:38.759Z,2.06
2022-12-08T05:23:05.487Z,2.10
2022-12-08T05:25:32.266Z,2.11
2022-12-08T05:28:24.796Z,2.14
2022-12-08T05:30:46.512Z,2.16
2022-12-08T05:33:13.361Z,2.15
2022-12-08T05:35:41.729Z,2.16
2022-12-08T05:38:09.476Z,2.19
2022-12-08T05:40:37.899Z,2.21
2022-12-08T05:43:04.907Z,2.18
2022-12-08T05:45:31.744Z,2.11
2022-12-08T05:47:58.597Z,2.22
2022-12-08T05:50:25.427Z,2.20
2022-12-08T05:52:58.301Z,2.26
2022-12-08T05:55:25.051Z,2.29
2022-12-08T05:57:51.771Z,2.33
2022-12-08T06:00:19.723Z,2.28
2022-12-08T06:02:46.960Z,2.19
2022-12-08T06:05:13.878Z,2.14
2022-12-08T06:07:40.695Z,2.20
2022-12-08T06:10:09.973Z,2.20
2022-12-08T06:12:36.747Z,2.23
2022-12-08T06:15:04.360Z,2.23
2022-12-08T06:17:31.324Z,2.19
2022-12-08T06:19:58.112Z,2.12
2022-12-08T06:22:25.325Z,2.08
2022-12-08T06:24:54.254Z,2.03
2022-12-08T06:35:28.635Z,1.88
2022-12-08T06:37:55.505Z,1.81
2022-12-08T06:40:22.286Z,1.80
2022-12-08T06:42:49.113Z,1.75
2022-12-08T06:45:17.571Z,1.76
2022-12-08T06:47:44.422Z,1.76
2022-12-08T06:50:12.494Z,1.73
2022-12-08T06:52:51.591Z,1.76
2022-12-08T06:55:57.435Z,1.78
2022-12-08T06:58:14.399Z,1.77
2022-12-08T07:00:42.054Z,1.77
2022-12-08T07:03:09.518Z,1.73
2022-12-08T07:05:37.041Z,1.79
2022-12-08T07:08:07.149Z,1.76
2022-12-08T07:10:35.499Z,1.73
2022-12-08T07:13:02.623Z,1.76
2022-12-08T07:15:29.485Z,1.74
2022-12-08T07:17:59.825Z,1.73
2022-12-08T07:20:27.403Z,1.73
2022-12-08T07:22:54.487Z,1.75
2022-12-08T07:25:22.879Z,1.74
2022-12-08T07:27:51.755Z,1.79
2022-12-08T07:30:19.154Z,1.84
2022-12-08T07:32:46.137Z,1.96
2022-12-08T07:35:13.520Z,1.99
2022-12-08T07:37:40.621Z,1.98
2022-12-08T07:40:09.137Z,2.00
2022-12-08T07:42:37.457Z,2.00
2022-12-08T07:45:05.053Z,1.99
2022-12-08T07:47:31.948Z,2.01
2022-12-08T07:49:58.944Z,2.07
2022-12-08T07:52:25.823Z,2.05
2022-12-08T07:54:52.695Z,1.98
2022-12-08T07:57:19.518Z,1.94
2022-12-08T07:59:47.869Z,1.89
2022-12-08T08:02:26.281Z,1.87
2022-12-08T08:04:53.611Z,1.81
2022-12-08T08:07:20.622Z,1.78
2022-12-08T08:09:47.409Z,1.73
2022-12-08T08:12:30.768Z,1.70
2022-12-08T08:15:00.432Z,1.69
2022-12-08T08:17:28.334Z,1.68
2022-12-08T08:19:55.580Z,1.69
2022-12-08T08:22:22.870Z,1.69
2022-12-08T08:24:50.597Z,1.70
2022-12-08T08:27:17.485Z,1.76
2022-12-08T08:29:44.380Z,1.96
2022-12-08T08:32:12.522Z,2.11
2022-12-08T08:34:39.332Z,2.25
2022-12-08T08:37:06.163Z,2.45
2022-12-08T08:39:33.045Z,2.37
2022-12-08T08:41:59.895Z,2.43
2022-12-08T08:44:26.678Z,2.40
2022-12-08T08:46:53.521Z,2.30
2022-12-08T08:49:21.788Z,2.17
2022-12-08T08:51:48.866Z,2.09
2022-12-08T08:54:15.799Z,2.04
2022-12-08T08:56:42.570Z,2.04
2022-12-08T08:59:09.821Z,1.98
2022-12-08T09:01:36.937Z,1.95
2022-12-08T09:04:03.892Z,1.94
2022-12-08T09:06:32.309Z,1.88
2022-12-08T09:08:59.558Z,1.79
2022-12-08T09:11:26.368Z,1.78
2022-12-08T09:13:54.113Z,1.79
2022-12-08T09:16:21.830Z,1.85
2022-12-08T09:18:49.695Z,1.90
2022-12-08T09:21:22.610Z,1.94
2022-12-08T09:23:52.772Z,1.98
2022-12-08T09:26:22.495Z,1.98
2022-12-08T09:28:50.232Z,1.99
2022-12-08T09:31:18.123Z,1.98
2022-12-08T09:33:45.346Z,2.12
2022-12-08T09:36:12.212Z,2.23
2022-12-08T09:38:39.634Z,2.29
2022-12-08T09:41:16.764Z,2.40
2022-12-08T09:43:55.732Z,2.41
2022-12-08T09:46:23.391Z,2.38
2022-12-08T09:48:56.079Z,2.40
2022-12-08T09:51:25.478Z,2.39
2022-12-08T09:53:56.388Z,2.37
2022-12-08T09:56:30.142Z,2.42
2022-12-08T09:59:00.231Z,2.37
2022-12-08T10:01:29.990Z,2.29
2022-12-08T10:03:57.704Z,2.22
2022-12-08T10:06:30.783Z,2.14
2022-12-08T10:09:12.786Z,2.04
2022-12-08T10:11:51.909Z,1.99
2022-12-08T10:14:31.370Z,1.94
2022-12-08T10:17:04.082Z,1.93
2022-12-08T10:19:33.873Z,1.92
2022-12-08T10:22:02.229Z,1.94
2022-12-08T10:24:37.519Z,1.91
2022-12-08T10:27:10.128Z,1.96
2022-12-08T10:29:36.987Z,2.00
2022-12-08T10:32:14.302Z,2.07
2022-12-08T10:35:01.739Z,2.26
2022-12-08T10:37:28.692Z,2.53
2022-12-08T10:40:06.229Z,3.15
2022-12-08T10:42:38.221Z,3.57
2022-12-08T10:45:20.373Z,3.61
2022-12-08T10:48:00.079Z,4.41
2022-12-08T10:50:33.362Z,5.13
2022-12-08T10:53:02.575Z,5.85
2022-12-08T10:55:44.958Z,6.60
2022-12-08T10:58:30.513Z,6.28
2022-12-08T11:01:04.046Z,6.97
2022-12-08T11:03:37.232Z,6.57
2022-12-08T11:06:15.292Z,6.69
2022-12-08T11:08:54.377Z,7.71
2022-12-08T11:11:29.257Z,7.73
2022-12-08T11:13:59.142Z,7.55
2022-12-08T11:16:27.683Z,7.26
2022-12-08T11:18:59.128Z,7.09
2022-12-08T11:21:44.613Z,7.16
2022-12-08T11:24:32.293Z,6.68
2022-12-08T11:29:50.840Z,7.04
2022-12-08T11:35:07.655Z,7.25
2022-12-08T11:43:25.833Z,6.31
2022-12-08T11:46:00.475Z,5.17
2022-12-08T11:48:33.702Z,4.53
2022-12-08T11:51:09.667Z,4.28
2022-12-08T11:53:44.818Z,3.62
2022-12-08T11:56:20.103Z,3.01
2022-12-08T11:58:51.711Z,2.51
2022-12-08T12:01:24.022Z,2.34
2022-12-08T12:04:10.802Z,2.23
2022-12-08T12:06:55.681Z,2.27
2022-12-08T12:09:37.819Z,2.34
2022-12-08T12:12:17.021Z,2.44
2022-12-08T12:15:22.648Z,2.54
2022-12-08T12:17:53.431Z,2.61
2022-12-08T12:20:24.307Z,2.85
2022-12-08T12:22:57.264Z,2.94
2022-12-08T12:25:34.808Z,2.97
2022-12-08T12:28:07.210Z,3.02
2022-12-08T12:31:06.701Z,3.11
2022-12-08T12:33:42.466Z,3.19
2022-12-08T13:40:10.379Z,3.43
2022-12-08T13:42:44.335Z,3.25
2022-12-08T13:45:24.510Z,3.19
2022-12-08T13:52:59.812Z,2.93
2022-12-08T13:54:48.788Z,2.90
2022-12-08T13:57:11.242Z,2.84
2022-12-08T13:59:36.323Z,2.86
2022-12-08T14:02:16.492Z,2.88
2022-12-08T14:05:16.830Z,2.88
2022-12-08T14:07:34.135Z,2.86
2022-12-08T14:10:03.756Z,2.80
2022-12-08T14:12:32.959Z,2.72
2022-12-08T14:15:04.341Z,2.66
2022-12-08T14:17:32.024Z,2.55
2022-12-08T14:20:01.563Z,2.52
2022-12-08T14:22:34.560Z,2.49
2022-12-08T14:25:05.119Z,2.48
2022-12-08T14:27:35.060Z,2.47
2022-12-08T14:30:03.828Z,2.39
2022-12-08T14:32:34.306Z,2.40
2022-12-08T14:35:11.398Z,2.31
2022-12-08T14:37:42.397Z,2.23
2022-12-08T14:40:23.558Z,2.21
2022-12-08T14:42:51.636Z,2.15
2022-12-08T14:45:19.733Z,2.09
2022-12-08T14:47:48.590Z,2.00
2022-12-08T14:50:39.561Z,1.94
2022-12-08T14:53:13.344Z,1.89
2022-12-08T14:55:43.864Z,1.86
2022-12-08T14:58:18.700Z,1.85
2022-12-08T15:00:47.938Z,1.84
2022-12-08T15:03:17.108Z,1.69
2022-12-08T15:05:44.628Z,1.63
2022-12-08T15:08:14.908Z,1.61
2022-12-08T15:10:48.226Z,1.42
2022-12-08T15:13:22.918Z,1.17
2022-12-08T15:15:52.325Z,1.02
2022-12-08T15:18:21.903Z,0.83
2022-12-08T15:20:51.808Z,0.82
2022-12-08T15:23:26.199Z,0.79
2022-12-08T15:25:55.572Z,0.72
2022-12-08T15:28:29.441Z,0.68
2022-12-08T15:30:59.197Z,0.70
2022-12-08T15:33:26.691Z,0.69
2022-12-08T15:35:53.738Z,0.69
2022-12-08T15:38:23.035Z,0.65
2022-12-08T15:40:50.493Z,0.56
2022-12-08T15:43:18.796Z,0.54
2022-12-08T15:45:57.880Z,0.55
2022-12-08T15:48:27.794Z,0.58
2022-12-08T15:50:56.185Z,0.65
2022-12-08T15:53:23.298Z,0.71
2022-12-08T15:56:18.898Z,0.71
2022-12-08T15:58:56.026Z,0.74
2022-12-08T16:01:24.230Z,0.76
2022-12-08T16:09:31.394Z,0.99
2022-12-08T16:12:17.092Z,1.02
2022-12-08T16:17:33.549Z,1.10
2022-12-08T16:20:00.994Z,1.16
2022-12-08T16:22:54.564Z,1.15
2022-12-08T16:25:20.021Z,1.14
2022-12-08T16:30:37.402Z,1.08
2022-12-08T16:33:04.674Z,1.04
2022-12-08T16:35:31.831Z,1.00
2022-12-08T16:37:59.350Z,1.07
2022-12-08T16:40:26.292Z,1.08
2022-12-08T16:42:53.607Z,1.03
2022-12-08T16:45:22.489Z,0.96
2022-12-08T16:47:52.314Z,0.94
2022-12-08T16:50:19.947Z,0.92
2022-12-08T16:52:46.645Z,1.06
2022-12-08T16:55:15.057Z,0.93
2022-12-08T16:57:42.236Z,0.79
2022-12-08T17:00:11.680Z,0.75
2022-12-08T17:02:38.745Z,0.64
2022-12-08T17:05:07.838Z,0.53
2022-12-08T17:07:35.715Z,0.48
2022-12-08T17:10:04.993Z,0.45
2022-12-08T17:12:32.046Z,0.53
2022-12-08T17:14:58.937Z,0.44
2022-12-08T17:17:25.773Z,0.39
2022-12-08T17:19:52.917Z,0.28
2022-12-08T17:22:21.196Z,0.20
2022-12-08T17:24:48.209Z,0.11
2022-12-08T17:27:15.206Z,0.07
2022-12-08T17:29:42.090Z,-0.02
2022-12-08T17:32:08.995Z,0.15
2022-12-08T17:34:35.894Z,0.41
2022-12-08T17:37:02.849Z,0.34
2022-12-08T17:39:31.179Z,0.27
2022-12-08T17:41:58.050Z,0.33
2022-12-08T17:44:25.172Z,0.20
2022-12-08T17:46:56.853Z,0.03
2022-12-08T17:49:27.235Z,-0.12
2022-12-08T17:54:39.270Z,-0.39
2022-12-08T17:57:06.544Z,-0.41
2022-12-08T17:59:33.974Z,-0.32
2022-12-08T18:02:01.744Z,-0.26
2022-12-08T18:04:29.455Z,-0.30
2022-12-08T18:06:59.390Z,-0.36
2022-12-08T18:09:26.412Z,-0.44
2022-12-08T18:11:54.753Z,-0.50
2022-12-08T18:14:21.960Z,-0.57
2022-12-08T18:16:49.242Z,-0.63
2022-12-08T18:19:16.377Z,-0.77
2022-12-08T18:21:44.003Z,-0.91
2022-12-08T18:24:16.918Z,-0.82
2022-12-08T18:26:43.756Z,-0.84
2022-12-08T18:29:12.111Z,-0.82
2022-12-08T18:31:38.967Z,-0.82
2022-12-08T18:34:05.800Z,-0.90
2022-12-08T18:36:32.905Z,-0.86
2022-12-08T18:39:00.100Z,-0.89
2022-12-08T18:41:27.100Z,-1.01
2022-12-08T18:43:55.518Z,-1.07
2022-12-08T18:46:26.812Z,-1.21
2022-12-08T18:48:53.622Z,-1.30
2022-12-08T18:51:22.805Z,-1.23
2022-12-08T18:53:50.791Z,-1.21
2022-12-08T18:56:22.304Z,-1.32
2022-12-08T18:58:49.255Z,-1.37
2022-12-08T19:02:04.658Z,-1.39
2022-12-08T19:05:01.444Z,-1.44
2022-12-08T19:07:30.578Z,-1.39
2022-12-08T19:09:59.340Z,-1.36
2022-12-08T19:12:26.966Z,-1.36
2022-12-08T19:14:54.062Z,-1.37
2022-12-08T19:29:20.312Z,-1.41
2022-12-08T19:31:47.299Z,-1.34
2022-12-08T19:34:14.821Z,-1.39
2022-12-08T19:36:43.207Z,-1.40
2022-12-08T19:39:33.846Z,-1.53
2022-12-08T19:42:19.489Z,-1.48
2022-12-08T19:44:54.279Z,-1.41
2022-12-08T19:47:22.727Z,-1.34
2022-12-08T19:49:50.022Z,-1.22
2022-12-08T19:52:17.372Z,-0.99
2022-12-08T19:54:44.539Z,-0.91
2022-12-08T19:57:11.817Z,-0.76
2022-12-08T19:59:39.100Z,-0.89
2022-12-08T20:02:08.149Z,-1.00
2022-12-08T20:04:35.355Z,-1.01
2022-12-08T20:07:02.552Z,-1.16
2022-12-08T20:09:30.523Z,-1.22
2022-12-08T20:11:58.736Z,-1.29
2022-12-08T20:14:26.486Z,-1.26
2022-12-08T20:16:53.630Z,-1.35
2022-12-08T20:19:22.371Z,-1.34
2022-12-08T20:21:49.344Z,-1.40
2022-12-08T20:24:16.776Z,-1.42
2022-12-08T20:26:43.595Z,-1.38
2022-12-08T20:29:10.902Z,-1.30
2022-12-08T20:31:38.545Z,-1.22
2022-12-08T20:34:05.719Z,-1.15
2022-12-08T20:36:34.304Z,-1.09
2022-12-08T20:39:01.263Z,-0.96
2022-12-08T20:41:28.231Z,-0.78
2022-12-08T20:43:55.170Z,-0.71
2022-12-08T20:46:22.375Z,-0.69
2022-12-08T20:48:49.449Z,-0.68
2022-12-08T20:51:18.483Z,-0.67
2022-12-08T20:53:47.874Z,-0.68
2022-12-08T20:56:16.421Z,-0.63
2022-12-08T20:58:43.506Z,-0.60
2022-12-08T21:01:12.294Z,-0.50
2022-12-08T21:03:40.396Z,-0.42
2022-12-08T21:06:07.965Z,-0.40
2022-12-08T21:08:35.501Z,-0.39
2022-12-08T21:11:04.795Z,-0.37
2022-12-08T21:13:32.073Z,-0.36
2022-12-08T21:15:59.310Z,-0.29
2022-12-08T21:18:26.390Z,-0.24
2022-12-08T21:20:53.521Z,-0.21
2022-12-08T21:23:20.474Z,-0.18
2022-12-08T21:25:47.654Z,-0.15
2022-12-08T21:28:15.975Z,0.02
2022-12-08T21:30:43.530Z,0.12
2022-12-08T21:33:10.586Z,0.14
2022-12-08T21:35:37.663Z,0.11
2022-12-08T21:38:05.546Z,0.05
2022-12-08T21:40:32.680Z,0.02
2022-12-08T21:42:59.650Z,-0.03
2022-12-08T21:45:28.328Z,0.04
2022-12-08T21:47:55.484Z,0.13
2022-12-08T21:50:22.482Z,0.13
2022-12-08T21:52:50.334Z,0.17
2022-12-08T21:55:19.245Z,0.10
2022-12-08T21:57:46.333Z,0.23
2022-12-08T22:00:15.803Z,0.34
2022-12-08T22:02:45.022Z,0.40
2022-12-08T22:05:13.391Z,0.40
2022-12-08T22:07:41.252Z,0.33
2022-12-08T22:10:10.572Z,0.29
2022-12-08T22:12:38.537Z,0.24
2022-12-08T22:15:07.281Z,0.22
2022-12-08T22:17:37.551Z,0.23
2022-12-08T22:20:09.422Z,0.39
2022-12-08T22:22:37.320Z,0.43
2022-12-08T22:25:06.120Z,0.45
2022-12-08T22:27:33.831Z,0.35
2022-12-08T22:30:00.759Z,0.22
2022-12-08T22:32:27.730Z,0.08
2022-12-08T22:34:54.903Z,-0.06
2022-12-08T22:37:23.275Z,-0.12
2022-12-08T22:39:50.179Z,-0.19
2022-12-08T22:42:17.146Z,-0.31
2022-12-08T22:44:44.048Z,-0.38
2022-12-08T22:47:11.063Z,-0.49
2022-12-08T22:49:37.952Z,-0.54
2022-12-08T22:52:05.247Z,-0.60
2022-12-08T22:54:33.788Z,-0.66
2022-12-08T22:57:00.580Z,-0.72
2022-12-08T22:59:33.751Z,-0.73
2022-12-08T23:02:03.219Z,-0.84
2022-12-08T23:04:30.473Z,-0.76
2022-12-08T23:06:57.605Z,-0.76
2022-12-08T23:09:24.788Z,-0.83
2022-12-08T23:11:53.608Z,-0.90
2022-12-08T23:14:20.791Z,-1.00
2022-12-08T23:16:47.979Z,-1.05
2022-12-08T23:19:14.859Z,-1.03
2022-12-08T23:21:41.724Z,-1.15
2022-12-08T23:24:08.620Z,-1.23
2022-12-08T23:26:35.918Z,-1.14
2022-12-08T23:29:04.613Z,-1.01
2022-12-08T23:31:32.355Z,-1.08
2022-12-08T23:34:00.055Z,-1.15
2022-12-08T23:36:27.001Z,-1.25
2022-12-08T23:38:54.357Z,-1.35
2022-12-08T23:41:22.042Z,-1.45
2022-12-08T23:43:50.761Z,-1.48
2022-12-08T23:46:21.878Z,-1.46
2022-12-08T23:48:49.656Z,-1.52
2022-12-08T23:51:16.908Z,-1.46
2022-12-08T23:53:44.519Z,-1.60
2022-12-08T23:56:13.519Z,-1.61
2022-12-08T23:58:41.687Z,-1.48
